METAR AND TAF INFORMATION
METAR FOR LEST
ADDS - METARS form results

(1213 UTC 27 November 2020)
Data provider http://aviationweather.gov/metar/data/
 
METAR text: LEST 271200Z 14004KT 100V200 CAVOK 14/09 Q1010 NOSIG
Conditions at: LEST (SANTIAGO/LABACOL, ES) observed 1200 UTC 27 November 2020
Temperature: 14.0°C (57°F)
Dewpoint: 9.0°C (48°F) [RH = 72%]
Pressure (altimeter): 29.82 inches Hg (1010.0 mb)
Winds: from the SE (140 degrees) at 5 MPH (4 knots; 2.1 m/s)
Visibility: 6 or more miles (10+ km)
Ceiling: ceiling and visibility are OK
Clouds: unknown
Weather: no significant weather observed at this time

METAR text: LEST 271130Z VRB01KT 9999 VCFG NSC 14/09 Q1011 NOSIG
Conditions at: LEST (SANTIAGO/LABACOL, ES) observed 1130 UTC 27 November 2020
Temperature: 14.0°C (57°F)
Dewpoint: 9.0°C (48°F) [RH = 72%]
Pressure (altimeter): 29.85 inches Hg (1011.0 mb)
Winds: variable direction winds at 1 MPH (1 knots; 0.5 m/s)
Visibility: 6 or more miles (10+ km)
Ceiling: at least 12,000 feet AGL
Clouds: sky clear below 12,000 feet AGL
Weather: VCFG  (fog in vicinity)

Forecast for: LEST (SANTIAGO/LABACOL, ES)
Text: TAF LEST 271100Z 2712/2812 13005KT CAVOK TX15/2714Z TN06/2807Z
Forecast period: 1200 UTC 27 November 2020 to 1200 UTC 28 November 2020
Forecast type: FROM: standard forecast or significant change
Winds: from the SE (130 degrees) at 6 MPH (5 knots; 2.6 m/s)
Visibility: 6 or more miles (10+ km)
Ceiling: unknown
Clouds: missing
Weather: no significant weather forecast for this period
Text: PROB40
Forecast period: 1800 UTC 27 November 2020 to 0900 UTC 28 November 2020
Forecast type: TEMPORARY: The following changes expected for less than half the time period
Visibility: 1.86 miles (2.99 km)
Ceiling: unknown
Clouds: missing
Weather: BR BCFG  (mist, patches of fog)
Text: TEMPO 2718/2809 3000 BR BCFG
Forecast period: 2100 UTC 27 November 2020 to 0800 UTC 28 November 2020
Forecast type: TEMPORARY: The following changes expected for less than half the time period
Visibility: 0.22 miles (0.35 km)
Ceiling: indefinite ceiling with vertical visibility of 100 feet AGL
Clouds: obscured sky
Weather: FG  (fog)

 AIRPORT MAP

 RUNWAY INFORMATION
Runway 17 Runway length 10499 ft Runway width 148 ft
Runway elevation 1170 ft Runway displaced threshold 394 ft Runway heading 166
Runway 35 Runway length 10499 ft Runway width 148 ft
Runway elevation 1196 ft Runway displaced threshold 0 ft Runway heading 346

 AIRPORT FREQUENCIES
Type APP Name APP Frequency 118.2 MHZ
Type GND Name GND Frequency 121.7 MHZ
Type TWR Name TWR Frequency 118.75 MHZ

 AIRPORT NEAR NAVIGATION AIDS
Type NDB Name Santiago Frequency 417 KHZ
Type VOR-DME Name Santiago Frequency 116400 KHZ